^^
Saratoga-Weather Station Historical Data
Daily Summary for April 04, 2021 Units:  Metric    English   Both
Daily Weekly Monthly Yearly Custom
  High: Low: Average:
Temperature: 14.8 °C 3.4 °C 8.9 °C
Dew Point: 4 °C 0.1 °C 2.1 °C
Humidity: 83% 44% 64%
Wind Speed: 13km/h 0km/h 3.4km/h
Wind Gust: 17.7km/h - -
Wind- - SW
Pressure: 1024.7 hPa 1016.3 hPa -
Precipitation: 0.0 mm    
Historical Graphs
 
 
Tabular Data for April 04, 2021
Time Temperature Dew Point Pressure Wind Wind Speed Wind Gust Humidity Rainfall Rate (Hourly) solar
00:04 6.8 °C 0.9 °C 1024.7 hPa NNE 1.4 km/h 3.2 km/h 66% 0.0 mm 0 W/m2
00:09 6.7 °C 0.8 °C 1024.7 hPa Calm   1.6 km/h 66% 0.0 mm 0 W/m2
00:14 6.6 °C 0.7 °C 1024.7 hPa NNE 1.4 km/h 3.2 km/h 66% 0.0 mm 0 W/m2
00:19 6.3 °C 0.6 °C 1024.7 hPa WSW 4.7 km/h 4.8 km/h 67% 0.0 mm 0 W/m2
00:24 6.2 °C 0.5 °C 1024.7 hPa West 1.4 km/h 6.4 km/h 67% 0.0 mm 0 W/m2
00:29 6.3 °C 0.6 °C 1024.4 hPa WNW 3.2 km/h 8 km/h 67% 0.0 mm 0 W/m2
00:34 6.4 °C 0.7 °C 1024.4 hPa NW 6.4 km/h 8 km/h 67% 0.0 mm 0 W/m2
00:39 6.6 °C 0.7 °C 1024.4 hPa WNW 4.7 km/h 6.4 km/h 66% 0.0 mm 0 W/m2
00:44 6.6 °C 0.7 °C 1024.4 hPa WNW 1.4 km/h 4.8 km/h 66% 0.0 mm 0 W/m2
00:49 6.6 °C 0.7 °C 1024.4 hPa West 4.7 km/h 4.8 km/h 66% 0.0 mm 0 W/m2
00:54 6.6 °C 0.7 °C 1024.4 hPa West 4.7 km/h 8 km/h 66% 0.0 mm 0 W/m2
00:59 6.6 °C 0.7 °C 1024.4 hPa WNW 3.2 km/h 4.8 km/h 66% 0.0 mm 0 W/m2
01:04 6.5 °C 0.6 °C 1024.4 hPa West 3.2 km/h 8 km/h 66% 0.0 mm 0 W/m2
01:09 6.5 °C 0.6 °C 1024.4 hPa WNW 1.4 km/h 4.8 km/h 66% 0.0 mm 0 W/m2
01:14 6.4 °C 0.5 °C 1024.4 hPa WNW 9.7 km/h 11.3 km/h 66% 0.0 mm 0 W/m2
01:19 6.5 °C 0.6 °C 1024.4 hPa NNW 3.2 km/h 6.4 km/h 66% 0.0 mm 0 W/m2
01:24 6.4 °C 0.5 °C 1024.4 hPa WNW 11.3 km/h 11.3 km/h 66% 0.0 mm 0 W/m2
01:29 6.4 °C 0.5 °C 1024.4 hPa ENE 7.9 km/h 8 km/h 66% 0.0 mm 0 W/m2
01:34 6.3 °C 0.4 °C 1024.7 hPa NW 3.2 km/h 6.4 km/h 66% 0.0 mm 0 W/m2
01:39 6.3 °C 0.4 °C 1024.4 hPa West 3.2 km/h 3.2 km/h 66% 0.0 mm 0 W/m2
01:44 6.2 °C 0.5 °C 1024.4 hPa West 3.2 km/h 3.2 km/h 67% 0.0 mm 0 W/m2
01:49 6.1 °C 0.6 °C 1024.4 hPa West 1.4 km/h 4.8 km/h 68% 0.0 mm 0 W/m2
01:54 5.9 °C 0.4 °C 1024.4 hPa Calm   1.6 km/h 68% 0.0 mm 0 W/m2
01:59 5.9 °C 0.4 °C 1024.4 hPa WNW 3.2 km/h 4.8 km/h 68% 0.0 mm 0 W/m2
02:04 5.9 °C 0.2 °C 1024.4 hPa West 6.4 km/h 6.4 km/h 67% 0.0 mm 0 W/m2
02:09 6.1 °C 0.4 °C 1024.4 hPa NW 3.2 km/h 6.4 km/h 67% 0.0 mm 0 W/m2
02:14 6.1 °C 0.4 °C 1024.4 hPa West 4.7 km/h 9.7 km/h 67% 0.0 mm 0 W/m2
02:19 6.1 °C 0.4 °C 1024.4 hPa North 3.2 km/h 11.3 km/h 67% 0.0 mm 0 W/m2
02:24 6.2 °C 0.5 °C 1024.4 hPa NNW 1.4 km/h 4.8 km/h 67% 0.0 mm 0 W/m2
02:29 6.1 °C 0.4 °C 1024.4 hPa NW 3.2 km/h 11.3 km/h 67% 0.0 mm 0 W/m2
02:34 6 °C 0.3 °C 1024.0 hPa Calm   6.4 km/h 67% 0.0 mm 0 W/m2
02:39 5.9 °C 0.2 °C 1024.0 hPa Calm   4.8 km/h 67% 0.0 mm 0 W/m2
02:44 5.9 °C 0.2 °C 1024.0 hPa NNW 1.4 km/h 3.2 km/h 67% 0.0 mm 0 W/m2
02:49 5.8 °C 0.4 °C 1024.0 hPa Calm   1.6 km/h 68% 0.0 mm 0 W/m2
02:54 5.7 °C 0.5 °C 1024.0 hPa SSW 1.4 km/h 3.2 km/h 69% 0.0 mm 0 W/m2
02:59 5.5 °C 0.3 °C 1024.0 hPa ENE 1.4 km/h 3.2 km/h 69% 0.0 mm 0 W/m2
03:04 5.5 °C 0.5 °C 1024.0 hPa NW 1.4 km/h 3.2 km/h 70% 0.0 mm 0 W/m2
03:09 5.4 °C 0.4 °C 1024.0 hPa NNE 4.7 km/h 8 km/h 70% 0.0 mm 0 W/m2
03:14 5.4 °C 0.4 °C 1024.0 hPa WSW 3.2 km/h 4.8 km/h 70% 0.0 mm 0 W/m2
03:19 5.4 °C 0.4 °C 1024.0 hPa NE 1.4 km/h 8 km/h 70% 0.0 mm 0 W/m2
03:24 5.4 °C 0.2 °C 1023.7 hPa NNE 1.4 km/h 4.8 km/h 69% 0.0 mm 0 W/m2
03:29 5.4 °C 0.2 °C 1024.0 hPa NNE 1.4 km/h 1.6 km/h 69% 0.0 mm 0 W/m2
03:34 5.3 °C 0.1 °C 1024.0 hPa WNW 1.4 km/h 3.2 km/h 69% 0.0 mm 0 W/m2
03:39 5.2 °C 0.2 °C 1024.0 hPa NNW 1.4 km/h 3.2 km/h 70% 0.0 mm 0 W/m2
03:44 5.1 °C 0.3 °C 1024.0 hPa West 3.2 km/h 9.7 km/h 71% 0.0 mm 0 W/m2
03:49 5.2 °C 0.4 °C 1024.0 hPa Calm   4.8 km/h 71% 0.0 mm 0 W/m2
03:54 5.2 °C 0.4 °C 1024.0 hPa NNW 6.4 km/h 9.7 km/h 71% 0.0 mm 0 W/m2
03:59 5.2 °C 0.4 °C 1024.0 hPa WNW 3.2 km/h 4.8 km/h 71% 0.0 mm 0 W/m2
04:04 5.1 °C 0.3 °C 1024.0 hPa Calm   6.4 km/h 71% 0.0 mm 0 W/m2
04:09 5.1 °C 0.5 °C 1024.0 hPa ESE 1.4 km/h 6.4 km/h 72% 0.0 mm 0 W/m2
04:14 5 °C 0.4 °C 1024.0 hPa West 1.4 km/h 4.8 km/h 72% 0.0 mm 0 W/m2
04:19 5 °C 0.4 °C 1024.0 hPa NNW 1.4 km/h 9.7 km/h 72% 0.0 mm 0 W/m2
04:24 5 °C 0.6 °C 1024.0 hPa ENE 4.7 km/h 6.4 km/h 73% 0.0 mm 0 W/m2
04:29 4.9 °C 0.5 °C 1024.0 hPa NNE 3.2 km/h 9.7 km/h 73% 0.0 mm 0 W/m2
04:34 4.9 °C 0.7 °C 1024.0 hPa WSW 1.4 km/h 4.8 km/h 74% 0.0 mm 0 W/m2
04:39 4.8 °C 0.6 °C 1024.0 hPa ENE 1.4 km/h 1.6 km/h 74% 0.0 mm 0 W/m2
04:44 4.8 °C 0.6 °C 1024.0 hPa West 3.2 km/h 4.8 km/h 74% 0.0 mm 0 W/m2
04:49 4.7 °C 0.6 °C 1024.0 hPa NNW 1.4 km/h 3.2 km/h 75% 0.0 mm 0 W/m2
04:54 4.6 °C 0.6 °C 1024.0 hPa SW 1.4 km/h 4.8 km/h 75% 0.0 mm 0 W/m2
05:00 4.4 °C 0.4 °C 1024.0 hPa SW 1.4 km/h 3.2 km/h 75% 0.0 mm 0 W/m2
05:05 4.2 °C 0.3 °C 1024.0 hPa NW 3.2 km/h 6.4 km/h 76% 0.0 mm 0 W/m2
05:10 4.2 °C 0.5 °C 1024.0 hPa NNE 3.2 km/h 9.7 km/h 77% 0.0 mm 0 W/m2
05:15 4.2 °C 0.5 °C 1024.0 hPa ENE 1.4 km/h 3.2 km/h 77% 0.0 mm 0 W/m2
05:20 4.2 °C 0.5 °C 1024.0 hPa Calm   3.2 km/h 77% 0.0 mm 0 W/m2
05:25 4.2 °C 0.5 °C 1024.0 hPa South 3.2 km/h 3.2 km/h 77% 0.0 mm 0 W/m2
05:30 4.2 °C 0.5 °C 1024.0 hPa SW 1.4 km/h 3.2 km/h 77% 0.0 mm 0 W/m2
05:35 4 °C 0.3 °C 1024.0 hPa South 1.4 km/h 1.6 km/h 77% 0.0 mm 0 W/m2
05:40 3.8 °C 0.3 °C 1024.0 hPa South 1.4 km/h 3.2 km/h 78% 0.0 mm 0 W/m2
05:45 3.7 °C 0.4 °C 1024.0 hPa Calm   1.6 km/h 79% 0.0 mm 0 W/m2
05:50 3.6 °C 0.5 °C 1024.0 hPa WSW 1.4 km/h 3.2 km/h 80% 0.0 mm 0 W/m2
05:55 3.6 °C 0.6 °C 1024.0 hPa Calm   4.8 km/h 81% 0.0 mm 0 W/m2
06:00 3.6 °C 0.6 °C 1024.0 hPa Calm   4.8 km/h 81% 0.0 mm 0 W/m2
06:05 3.5 °C 0.5 °C 1024.0 hPa West 3.2 km/h 3.2 km/h 81% 0.0 mm 0 W/m2
06:10 3.5 °C 0.5 °C 1024.0 hPa NNW 1.4 km/h 4.8 km/h 81% 0.0 mm 0 W/m2
06:15 3.7 °C 0.9 °C 1024.0 hPa WNW 3.2 km/h 6.4 km/h 82% 0.0 mm 0 W/m2
06:20 3.8 °C 0.8 °C 1024.0 hPa West 3.2 km/h 4.8 km/h 81% 0.0 mm 0 W/m2
06:25 3.8 °C 0.8 °C 1024.0 hPa NW 4.7 km/h 6.4 km/h 81% 0.0 mm 0 W/m2
06:30 3.8 °C 0.8 °C 1024.0 hPa Calm   1.6 km/h 81% 0.0 mm 0 W/m2
06:35 3.7 °C 0.7 °C 1024.0 hPa West 1.4 km/h 1.6 km/h 81% 0.0 mm 0 W/m2
06:40 3.6 °C 0.6 °C 1024.0 hPa Calm   3.2 km/h 81% 0.0 mm 0 W/m2
06:45 3.6 °C 0.8 °C 1024.0 hPa North 1.4 km/h 3.2 km/h 82% 0.0 mm 0 W/m2
06:50 3.7 °C 0.9 °C 1024.0 hPa West 3.2 km/h 4.8 km/h 82% 0.0 mm 0 W/m2
06:55 3.7 °C 0.9 °C 1024.0 hPa NNW 1.4 km/h 6.4 km/h 82% 0.0 mm 0 W/m2
07:00 3.7 °C 0.9 °C 1024.0 hPa WSW 1.4 km/h 6.4 km/h 82% 0.0 mm 0 W/m2
07:05 3.7 °C 0.9 °C 1024.0 hPa WNW 3.2 km/h 6.4 km/h 82% 0.0 mm 0 W/m2
07:10 3.7 °C 0.9 °C 1024.0 hPa Calm   1.6 km/h 82% 0.0 mm 5 W/m2
07:15 3.6 °C 0.8 °C 1024.0 hPa NNW 1.4 km/h 9.7 km/h 82% 0.0 mm 7 W/m2
07:20 3.6 °C 0.8 °C 1024.0 hPa Calm   1.6 km/h 82% 0.0 mm 11 W/m2
07:25 3.6 °C 0.8 °C 1024.0 hPa Calm   8 km/h 82% 0.0 mm 12 W/m2
07:30 3.5 °C 0.7 °C 1024.0 hPa Calm   4.8 km/h 82% 0.0 mm 16 W/m2
07:35 3.4 °C 0.8 °C 1024.0 hPa Calm   1.6 km/h 83% 0.0 mm 18 W/m2
07:40 3.4 °C 0.8 °C 1024.0 hPa Calm   1.6 km/h 83% 0.0 mm 21 W/m2
07:45 3.4 °C 0.8 °C 1024.0 hPa East 4.7 km/h 11.3 km/h 83% 0.0 mm 23 W/m2
07:50 3.5 °C 0.9 °C 1024.0 hPa NNE 3.2 km/h 4.8 km/h 83% 0.0 mm 26 W/m2
07:55 3.5 °C 0.9 °C 1024.0 hPa NNE 3.2 km/h 3.2 km/h 83% 0.0 mm 28 W/m2
08:00 3.6 °C 1 °C 1024.0 hPa NNE 1.4 km/h 3.2 km/h 83% 0.0 mm 30 W/m2
08:05 3.6 °C 1 °C 1024.0 hPa NW 1.4 km/h 6.4 km/h 83% 0.0 mm 33 W/m2
08:10 3.7 °C 1.1 °C 1024.0 hPa Calm   4.8 km/h 83% 0.0 mm 35 W/m2
08:15 3.7 °C 0.9 °C 1024.0 hPa West 4.7 km/h 6.4 km/h 82% 0.0 mm 74 W/m2
08:20 3.8 °C 1.2 °C 1024.0 hPa WNW 1.4 km/h 3.2 km/h 83% 0.0 mm 95 W/m2
08:25 3.9 °C 1.1 °C 1024.0 hPa NW 3.2 km/h 4.8 km/h 82% 0.0 mm 109 W/m2
08:30 4 °C 1.2 °C 1024.0 hPa Calm   4.8 km/h 82% 0.0 mm 93 W/m2
08:35 4.1 °C 1.3 °C 1024.0 hPa NE 4.7 km/h 4.8 km/h 82% 0.0 mm 97 W/m2
08:40 4.2 °C 1.2 °C 1024.4 hPa Calm   9.7 km/h 81% 0.0 mm 155 W/m2
08:45 4.3 °C 1.3 °C 1024.4 hPa Calm   3.2 km/h 81% 0.0 mm 169 W/m2
08:50 4.5 °C 1.5 °C 1024.4 hPa NNW 1.4 km/h 6.4 km/h 81% 0.0 mm 186 W/m2
08:55 4.6 °C 1.4 °C 1024.4 hPa North 1.4 km/h 4.8 km/h 80% 0.0 mm 200 W/m2
09:00 4.8 °C 1.6 °C 1024.4 hPa NNW 3.2 km/h 6.4 km/h 80% 0.0 mm 214 W/m2
09:06 4.9 °C 1.7 °C 1024.4 hPa NW 1.4 km/h 6.4 km/h 80% 0.0 mm 67 W/m2
09:11 5.1 °C 1.8 °C 1024.4 hPa NNE 1.4 km/h 4.8 km/h 79% 0.0 mm 72 W/m2
09:16 5.2 °C 1.9 °C 1024.4 hPa WNW 3.2 km/h 6.4 km/h 79% 0.0 mm 260 W/m2
09:21 5.3 °C 1.8 °C 1024.0 hPa North 4.7 km/h 4.8 km/h 78% 0.0 mm 272 W/m2
09:26 5.5 °C 2 °C 1024.0 hPa Calm   8 km/h 78% 0.0 mm 285 W/m2
09:31 5.7 °C 2 °C 1024.0 hPa ENE 1.4 km/h 4.8 km/h 77% 0.0 mm 301 W/m2
09:36 5.8 °C 2.1 °C 1024.0 hPa ENE 4.7 km/h 4.8 km/h 77% 0.0 mm 316 W/m2
09:41 5.9 °C 2 °C 1024.0 hPa NE 1.4 km/h 6.4 km/h 76% 0.0 mm 330 W/m2
09:46 6.1 °C 2.2 °C 1024.0 hPa North 1.4 km/h 4.8 km/h 76% 0.0 mm 350 W/m2
09:51 6.2 °C 2.3 °C 1024.0 hPa East 4.7 km/h 6.4 km/h 76% 0.0 mm 362 W/m2
09:56 6.4 °C 2.5 °C 1024.4 hPa North 1.4 km/h 4.8 km/h 76% 0.0 mm 374 W/m2
10:01 6.7 °C 2.6 °C 1024.0 hPa West 3.2 km/h 4.8 km/h 75% 0.0 mm 390 W/m2
10:06 6.8 °C 2.5 °C 1024.0 hPa WNW 6.4 km/h 6.4 km/h 74% 0.0 mm 399 W/m2
10:11 6.8 °C 2.5 °C 1024.0 hPa Calm   6.4 km/h 74% 0.0 mm 415 W/m2
10:16 6.9 °C 2.6 °C 1024.0 hPa NW 1.4 km/h 3.2 km/h 74% 0.0 mm 429 W/m2
10:21 7 °C 2.7 °C 1024.0 hPa Calm   8 km/h 74% 0.0 mm 443 W/m2
10:26 7.2 °C 2.9 °C 1024.0 hPa Calm   8 km/h 74% 0.0 mm 457 W/m2
10:31 7.3 °C 2.6 °C 1024.0 hPa Calm   6.4 km/h 72% 0.0 mm 469 W/m2
10:36 7.6 °C 2.9 °C 1024.0 hPa East 1.4 km/h 4.8 km/h 72% 0.0 mm 483 W/m2
10:41 7.8 °C 3.1 °C 1024.0 hPa NNW 1.4 km/h 4.8 km/h 72% 0.0 mm 496 W/m2
10:46 7.9 °C 3 °C 1024.0 hPa ESE 4.7 km/h 8 km/h 71% 0.0 mm 506 W/m2
10:51 8.1 °C 3.2 °C 1023.7 hPa SE 1.4 km/h 8 km/h 71% 0.0 mm 519 W/m2
10:56 8.2 °C 3.1 °C 1023.7 hPa East 6.4 km/h 8 km/h 70% 0.0 mm 527 W/m2
11:01 8.3 °C 3.1 °C 1023.7 hPa SE 4.7 km/h 4.8 km/h 70% 0.0 mm 540 W/m2
11:06 8.4 °C 3.2 °C 1023.7 hPa NNE 3.2 km/h 6.4 km/h 70% 0.0 mm 548 W/m2
11:11 8.6 °C 3.2 °C 1023.7 hPa ENE 3.2 km/h 11.3 km/h 69% 0.0 mm 557 W/m2
11:16 8.7 °C 3.3 °C 1023.7 hPa East 4.7 km/h 11.3 km/h 69% 0.0 mm 571 W/m2
11:21 8.7 °C 3.1 °C 1023.7 hPa East 6.4 km/h 9.7 km/h 68% 0.0 mm 582 W/m2
11:26 8.8 °C 3.2 °C 1023.7 hPa NE 3.2 km/h 4.8 km/h 68% 0.0 mm 589 W/m2
11:31 8.8 °C 3.4 °C 1023.7 hPa Calm   6.4 km/h 69% 0.0 mm 601 W/m2
11:36 8.9 °C 3.3 °C 1023.7 hPa ENE 1.4 km/h 4.8 km/h 68% 0.0 mm 606 W/m2
11:41 9.1 °C 3.5 °C 1023.4 hPa WNW 3.2 km/h 4.8 km/h 68% 0.0 mm 621 W/m2
11:46 9.2 °C 3.6 °C 1023.4 hPa NE 6.4 km/h 8 km/h 68% 0.0 mm 631 W/m2
11:51 9.5 °C 3.7 °C 1023.4 hPa NE 1.4 km/h 4.8 km/h 67% 0.0 mm 642 W/m2
11:56 9.8 °C 3.7 °C 1023.4 hPa NE 6.4 km/h 9.7 km/h 66% 0.0 mm 638 W/m2
12:01 9.9 °C 3.4 °C 1023.4 hPa ESE 3.2 km/h 6.4 km/h 64% 0.0 mm 671 W/m2
12:06 10 °C 3.5 °C 1023.4 hPa Calm   8 km/h 64% 0.0 mm 680 W/m2
12:11 10.3 °C 4 °C 1023.4 hPa ENE 1.4 km/h 6.4 km/h 65% 0.0 mm 703 W/m2
12:16 10.6 °C 3.6 °C 1023.4 hPa SE 1.4 km/h 8 km/h 62% 0.0 mm 701 W/m2
12:21 10.8 °C 3.8 °C 1023.4 hPa ESE 1.4 km/h 8 km/h 62% 0.0 mm 717 W/m2
12:26 11.1 °C 3.9 °C 1023.4 hPa ENE 3.2 km/h 12.9 km/h 61% 0.0 mm 765 W/m2
12:31 11.2 °C 3.5 °C 1023.0 hPa NE 1.4 km/h 4.8 km/h 59% 0.0 mm 737 W/m2
12:36 11.1 °C 3.1 °C 1023.0 hPa WNW 4.7 km/h 6.4 km/h 58% 0.0 mm 225 W/m2
12:41 11.2 °C 3.5 °C 1023.0 hPa Calm   1.6 km/h 59% 0.0 mm 759 W/m2
12:46 11.4 °C 3.2 °C 1023.0 hPa NE 1.4 km/h 6.4 km/h 57% 0.0 mm 663 W/m2
12:51 11.5 °C 3.5 °C 1022.7 hPa ESE 3.2 km/h 4.8 km/h 58% 0.0 mm 431 W/m2
12:56 11.8 °C 3.6 °C 1022.7 hPa North 3.2 km/h 6.4 km/h 57% 0.0 mm 772 W/m2
13:01 11.9 °C 3.6 °C 1022.7 hPa East 4.7 km/h 6.4 km/h 57% 0.0 mm 758 W/m2
13:06 11.9 °C 3.1 °C 1022.7 hPa East 1.4 km/h 6.4 km/h 55% 0.0 mm 784 W/m2
13:11 11.8 °C 3.3 °C 1022.7 hPa WSW 3.2 km/h 9.7 km/h 56% 0.0 mm 798 W/m2
13:16 11.8 °C 3.3 °C 1022.4 hPa WNW 3.2 km/h 3.2 km/h 56% 0.0 mm 786 W/m2
13:21 12 °C 3.2 °C 1022.4 hPa ENE 1.4 km/h 11.3 km/h 55% 0.0 mm 171 W/m2
13:26 11.9 °C 3.1 °C 1022.4 hPa East 6.4 km/h 9.7 km/h 55% 0.0 mm 766 W/m2
13:31 12.1 °C 3.3 °C 1022.4 hPa North 4.7 km/h 11.3 km/h 55% 0.0 mm 758 W/m2
13:36 12.1 °C 3.1 °C 1022.4 hPa ENE 4.7 km/h 6.4 km/h 54% 0.0 mm 789 W/m2
13:41 12 °C 2.7 °C 1022.4 hPa North 3.2 km/h 8 km/h 53% 0.0 mm 745 W/m2
13:46 12.3 °C 3 °C 1022.0 hPa ESE 9.7 km/h 9.7 km/h 53% 0.0 mm 747 W/m2
13:51 12.6 °C 3.5 °C 1022.0 hPa East 9.7 km/h 11.3 km/h 54% 0.0 mm 744 W/m2
13:56 12.6 °C 3.3 °C 1022.0 hPa Calm   4.8 km/h 53% 0.0 mm 766 W/m2
14:01 12.7 °C 3.1 °C 1022.0 hPa West 1.4 km/h 8 km/h 52% 0.0 mm 768 W/m2
14:06 12.7 °C 3.1 °C 1022.0 hPa NW 1.4 km/h 4.8 km/h 52% 0.0 mm 765 W/m2
14:11 12.7 °C 3.4 °C 1022.0 hPa ENE 6.4 km/h 9.7 km/h 53% 0.0 mm 737 W/m2
14:16 12.8 °C 2.9 °C 1022.0 hPa SE 4.7 km/h 4.8 km/h 51% 0.0 mm 745 W/m2
14:21 12.8 °C 2.9 °C 1021.7 hPa ESE 1.4 km/h 6.4 km/h 51% 0.0 mm 737 W/m2
14:26 12.9 °C 3.3 °C 1021.7 hPa SW 1.4 km/h 4.8 km/h 52% 0.0 mm 715 W/m2
14:31 13 °C 2.8 °C 1021.7 hPa South 3.2 km/h 9.7 km/h 50% 0.0 mm 701 W/m2
14:36 13 °C 3.1 °C 1021.7 hPa NE 3.2 km/h 6.4 km/h 51% 0.0 mm 698 W/m2
14:41 13.2 °C 3 °C 1021.3 hPa ESE 1.4 km/h 3.2 km/h 50% 0.0 mm 698 W/m2
14:46 13.3 °C 3.1 °C 1021.3 hPa North 7.9 km/h 8 km/h 50% 0.0 mm 689 W/m2
14:51 13.2 °C 1.5 °C 1021.3 hPa WNW 4.7 km/h 12.9 km/h 45% 0.0 mm 712 W/m2
14:56 13.2 °C 3 °C 1021.3 hPa NE 1.4 km/h 6.4 km/h 50% 0.0 mm 694 W/m2
15:01 13.3 °C 2.8 °C 1021.3 hPa West 3.2 km/h 8 km/h 49% 0.0 mm 689 W/m2
15:06 13.4 °C 2.6 °C 1021.0 hPa ENE 7.9 km/h 9.7 km/h 48% 0.0 mm 686 W/m2
15:11 13.6 °C 2.8 °C 1021.0 hPa NE 3.2 km/h 8 km/h 48% 0.0 mm 671 W/m2
15:16 13.7 °C 2.6 °C 1021.0 hPa ESE 3.2 km/h 3.2 km/h 47% 0.0 mm 663 W/m2
15:21 13.9 °C 3.1 °C 1021.0 hPa ENE 7.9 km/h 12.9 km/h 48% 0.0 mm 657 W/m2
15:26 14.2 °C 3 °C 1021.0 hPa NNW 3.2 km/h 6.4 km/h 47% 0.0 mm 642 W/m2
15:31 14.3 °C 2.5 °C 1021.0 hPa NE 3.2 km/h 12.9 km/h 45% 0.0 mm 640 W/m2
15:36 14.3 °C 2.5 °C 1021.0 hPa WNW 6.4 km/h 12.9 km/h 45% 0.0 mm 635 W/m2
15:41 14.1 °C 2.3 °C 1020.7 hPa West 1.4 km/h 9.7 km/h 45% 0.0 mm 635 W/m2
15:46 14 °C 2.2 °C 1020.7 hPa ESE 3.2 km/h 14.5 km/h 45% 0.0 mm 624 W/m2
15:51 14.1 °C 2.6 °C 1020.7 hPa WNW 4.7 km/h 9.7 km/h 46% 0.0 mm 619 W/m2
15:56 14 °C 2.6 °C 1020.7 hPa NW 3.2 km/h 6.4 km/h 46% 0.0 mm 605 W/m2
16:01 14 °C 2.6 °C 1020.7 hPa NE 4.7 km/h 6.4 km/h 46% 0.0 mm 599 W/m2
16:06 14.1 °C 2.6 °C 1020.7 hPa East 1.4 km/h 6.4 km/h 46% 0.0 mm 587 W/m2
16:11 14.2 °C 2.4 °C 1020.3 hPa WNW 1.4 km/h 12.9 km/h 45% 0.0 mm 578 W/m2
16:16 14.2 °C 2.7 °C 1020.3 hPa NE 1.4 km/h 8 km/h 46% 0.0 mm 570 W/m2
16:21 14.3 °C 2.8 °C 1020.0 hPa NNW 4.7 km/h 12.9 km/h 46% 0.0 mm 566 W/m2
16:26 14.3 °C 2.8 °C 1020.0 hPa NW 3.2 km/h 4.8 km/h 46% 0.0 mm 545 W/m2
16:31 14.3 °C 2.8 °C 1020.0 hPa NNW 6.4 km/h 11.3 km/h 46% 0.0 mm 534 W/m2
16:36 14.3 °C 2.8 °C 1020.0 hPa ESE 3.2 km/h 6.4 km/h 46% 0.0 mm 508 W/m2
16:41 14.4 °C 2.9 °C 1020.0 hPa Calm   4.8 km/h 46% 0.0 mm 506 W/m2
16:46 14.4 °C 2.6 °C 1019.6 hPa ENE 3.2 km/h 11.3 km/h 45% 0.0 mm 497 W/m2
16:51 14.3 °C 2.5 °C 1019.6 hPa Calm   3.2 km/h 45% 0.0 mm 487 W/m2
16:56 14.4 °C 2.9 °C 1019.6 hPa East 1.4 km/h 9.7 km/h 46% 0.0 mm 466 W/m2
17:01 14.6 °C 2.8 °C 1019.6 hPa Calm   9.7 km/h 45% 0.0 mm 462 W/m2
17:06 14.4 °C 2.6 °C 1019.6 hPa WNW 6.4 km/h 6.4 km/h 45% 0.0 mm 441 W/m2
17:11 14.3 °C 2.5 °C 1019.3 hPa NW 3.2 km/h 8 km/h 45% 0.0 mm 422 W/m2
17:16 14.3 °C 2.8 °C 1019.3 hPa Calm   6.4 km/h 46% 0.0 mm 411 W/m2
17:21 14.4 °C 2.6 °C 1019.3 hPa North 3.2 km/h 6.4 km/h 45% 0.0 mm 399 W/m2
17:26 14.5 °C 2.7 °C 1019.3 hPa West 3.2 km/h 9.7 km/h 45% 0.0 mm 385 W/m2
17:31 14.6 °C 2.8 °C 1019.3 hPa WNW 4.7 km/h 12.9 km/h 45% 0.0 mm 381 W/m2
17:36 14.6 °C 2.8 °C 1019.0 hPa Calm   4.8 km/h 45% 0.0 mm 367 W/m2
17:41 14.7 °C 2.9 °C 1019.0 hPa WNW 4.7 km/h 12.9 km/h 45% 0.0 mm 353 W/m2
17:46 14.7 °C 2.6 °C 1019.0 hPa West 3.2 km/h 4.8 km/h 44% 0.0 mm 346 W/m2
17:51 14.7 °C 2.6 °C 1019.0 hPa NNW 1.4 km/h 6.4 km/h 44% 0.0 mm 325 W/m2
17:56 14.8 °C 2.7 °C 1019.0 hPa WNW 3.2 km/h 4.8 km/h 44% 0.0 mm 311 W/m2
18:01 14.7 °C 2.6 °C 1019.0 hPa WNW 1.4 km/h 6.4 km/h 44% 0.0 mm 297 W/m2
18:06 14.7 °C 2.9 °C 1019.0 hPa WNW 1.4 km/h 3.2 km/h 45% 0.0 mm 287 W/m2
18:11 14.8 °C 2.7 °C 1019.0 hPa NNW 6.4 km/h 6.4 km/h 44% 0.0 mm 269 W/m2
18:16 14.8 °C 2.7 °C 1018.6 hPa NNW 3.2 km/h 9.7 km/h 44% 0.0 mm 253 W/m2
18:21 14.6 °C 2.8 °C 1018.6 hPa WNW 4.7 km/h 11.3 km/h 45% 0.0 mm 239 W/m2
18:27 14.5 °C 3 °C 1018.6 hPa West 3.2 km/h 9.7 km/h 46% 0.0 mm 225 W/m2
18:32 14.3 °C 2.8 °C 1018.6 hPa NNW 1.4 km/h 8 km/h 46% 0.0 mm 207 W/m2
18:37 14.2 °C 3 °C 1018.3 hPa West 6.4 km/h 11.3 km/h 47% 0.0 mm 193 W/m2
18:42 14.1 °C 3 °C 1018.3 hPa NW 3.2 km/h 6.4 km/h 47% 0.0 mm 179 W/m2
18:47 14 °C 3.2 °C 1018.3 hPa NW 4.7 km/h 9.7 km/h 48% 0.0 mm 167 W/m2
18:52 13.8 °C 3.3 °C 1018.3 hPa West 9.7 km/h 9.7 km/h 49% 0.0 mm 155 W/m2
18:57 13.7 °C 3.2 °C 1018.3 hPa WSW 7.9 km/h 8 km/h 49% 0.0 mm 142 W/m2
19:02 13.6 °C 3.1 °C 1018.3 hPa WNW 4.7 km/h 9.7 km/h 49% 0.0 mm 127 W/m2
19:07 13.4 °C 2.9 °C 1018.3 hPa West 1.4 km/h 6.4 km/h 49% 0.0 mm 111 W/m2
19:12 13.3 °C 2.8 °C 1018.3 hPa West 4.7 km/h 4.8 km/h 49% 0.0 mm 97 W/m2
19:17 13.2 °C 3 °C 1018.3 hPa West 3.2 km/h 4.8 km/h 50% 0.0 mm 83 W/m2
19:22 13.2 °C 3.3 °C 1018.3 hPa West 1.4 km/h 4.8 km/h 51% 0.0 mm 70 W/m2
19:27 13.1 °C 3.2 °C 1018.3 hPa West 3.2 km/h 4.8 km/h 51% 0.0 mm 47 W/m2
19:32 12.9 °C 2.7 °C 1018.3 hPa West 3.2 km/h 6.4 km/h 50% 0.0 mm 35 W/m2
19:37 12.7 °C 3.1 °C 1018.3 hPa West 1.4 km/h 6.4 km/h 52% 0.0 mm 32 W/m2
19:42 12.6 °C 3.3 °C 1018.3 hPa West 3.2 km/h 8 km/h 53% 0.0 mm 26 W/m2
19:47 12.4 °C 3.3 °C 1018.3 hPa WNW 4.7 km/h 4.8 km/h 54% 0.0 mm 23 W/m2
19:52 12.2 °C 3.2 °C 1018.3 hPa West 3.2 km/h 4.8 km/h 54% 0.0 mm 18 W/m2
19:57 12.1 °C 3.3 °C 1018.0 hPa West 4.7 km/h 6.4 km/h 55% 0.0 mm 14 W/m2
20:02 11.9 °C 3.1 °C 1018.0 hPa West 6.4 km/h 6.4 km/h 55% 0.0 mm 11 W/m2
20:07 11.8 °C 3.3 °C 1018.0 hPa WSW 6.4 km/h 6.4 km/h 56% 0.0 mm 7 W/m2
20:12 11.7 °C 3.2 °C 1018.0 hPa West 1.4 km/h 4.8 km/h 56% 0.0 mm 0 W/m2
20:17 11.6 °C 3.4 °C 1018.0 hPa West 11.3 km/h 11.3 km/h 57% 0.0 mm 0 W/m2
20:22 11.4 °C 3.2 °C 1018.0 hPa West 4.7 km/h 6.4 km/h 57% 0.0 mm 0 W/m2
20:27 11.3 °C 3.3 °C 1018.0 hPa West 3.2 km/h 9.7 km/h 58% 0.0 mm 0 W/m2
20:32 11.2 °C 3.2 °C 1018.0 hPa WSW 4.7 km/h 8 km/h 58% 0.0 mm 0 W/m2
20:37 11.2 °C 3.5 °C 1018.0 hPa WSW 4.7 km/h 4.8 km/h 59% 0.0 mm 0 W/m2
20:42 11 °C 3.3 °C 1018.0 hPa WSW 3.2 km/h 6.4 km/h 59% 0.0 mm 0 W/m2
20:47 10.9 °C 3.2 °C 1018.0 hPa West 1.4 km/h 6.4 km/h 59% 0.0 mm 0 W/m2
20:52 10.9 °C 3.4 °C 1018.0 hPa WSW 3.2 km/h 6.4 km/h 60% 0.0 mm 0 W/m2
20:57 10.8 °C 3.3 °C 1018.0 hPa WSW 7.9 km/h 8 km/h 60% 0.0 mm 0 W/m2
21:02 10.8 °C 3.3 °C 1018.0 hPa West 3.2 km/h 11.3 km/h 60% 0.0 mm 0 W/m2
21:07 10.8 °C 3.3 °C 1018.0 hPa West 4.7 km/h 4.8 km/h 60% 0.0 mm 0 W/m2
21:12 10.7 °C 3.2 °C 1018.0 hPa West 6.4 km/h 11.3 km/h 60% 0.0 mm 0 W/m2
21:17 10.7 °C 3.2 °C 1018.0 hPa West 4.7 km/h 9.7 km/h 60% 0.0 mm 0 W/m2
21:22 10.7 °C 3.2 °C 1018.0 hPa WNW 4.7 km/h 9.7 km/h 60% 0.0 mm 0 W/m2
21:27 10.6 °C 3.2 °C 1018.0 hPa WSW 6.4 km/h 9.7 km/h 60% 0.0 mm 0 W/m2
21:32 10.5 °C 3.1 °C 1018.0 hPa West 1.4 km/h 9.7 km/h 60% 0.0 mm 0 W/m2
21:37 10.5 °C 3.3 °C 1018.0 hPa West 11.1 km/h 14.5 km/h 61% 0.0 mm 0 W/m2
21:42 10.5 °C 3.1 °C 1018.0 hPa NW 3.2 km/h 6.4 km/h 60% 0.0 mm 0 W/m2
21:47 10.4 °C 3.2 °C 1018.0 hPa WNW 3.2 km/h 14.5 km/h 61% 0.0 mm 0 W/m2
21:52 10.3 °C 3.1 °C 1018.0 hPa West 9.7 km/h 11.3 km/h 61% 0.0 mm 0 W/m2
21:57 10.3 °C 3.1 °C 1017.6 hPa West 3.2 km/h 6.4 km/h 61% 0.0 mm 0 W/m2
22:02 10.3 °C 3.1 °C 1017.6 hPa West 6.4 km/h 12.9 km/h 61% 0.0 mm 0 W/m2
22:07 10.2 °C 3 °C 1017.6 hPa West 6.4 km/h 8 km/h 61% 0.0 mm 0 W/m2
22:12 10.1 °C 3.1 °C 1017.6 hPa WNW 6.4 km/h 11.3 km/h 62% 0.0 mm 0 W/m2
22:17 9.9 °C 3.2 °C 1017.6 hPa WSW 11.1 km/h 16.1 km/h 63% 0.0 mm 0 W/m2
22:22 9.8 °C 3.3 °C 1017.6 hPa WNW 11.1 km/h 14.5 km/h 64% 0.0 mm 0 W/m2
22:27 9.7 °C 3.4 °C 1017.6 hPa West 9.7 km/h 16.1 km/h 65% 0.0 mm 0 W/m2
22:32 9.6 °C 3.6 °C 1017.6 hPa NW 13 km/h 16.1 km/h 66% 0.0 mm 0 W/m2
22:37 9.5 °C 3.7 °C 1017.6 hPa West 9.7 km/h 16.1 km/h 67% 0.0 mm 0 W/m2
22:42 9.4 °C 3.6 °C 1017.6 hPa NW 9.7 km/h 17.7 km/h 67% 0.0 mm 0 W/m2
22:47 9.3 °C 3.7 °C 1017.6 hPa West 4.7 km/h 14.5 km/h 68% 0.0 mm 0 W/m2
22:52 9.2 °C 3.6 °C 1017.6 hPa West 6.4 km/h 11.3 km/h 68% 0.0 mm 0 W/m2
22:57 9.1 °C 3.5 °C 1017.3 hPa West 6.4 km/h 14.5 km/h 68% 0.0 mm 0 W/m2
23:02 9 °C 3.4 °C 1016.9 hPa West 13 km/h 12.9 km/h 68% 0.0 mm 0 W/m2
23:07 9 °C 3.4 °C 1016.9 hPa WNW 6.4 km/h 12.9 km/h 68% 0.0 mm 0 W/m2
23:12 8.9 °C 3.3 °C 1016.9 hPa WSW 6.4 km/h 11.3 km/h 68% 0.0 mm 0 W/m2
23:17 8.8 °C 3.4 °C 1016.9 hPa West 13 km/h 14.5 km/h 69% 0.0 mm 0 W/m2
23:22 8.7 °C 3.3 °C 1016.6 hPa West 3.2 km/h 6.4 km/h 69% 0.0 mm 0 W/m2
23:27 8.6 °C 3.2 °C 1016.6 hPa WSW 6.4 km/h 14.5 km/h 69% 0.0 mm 0 W/m2
23:32 8.5 °C 3.3 °C 1016.6 hPa West 4.7 km/h 14.5 km/h 70% 0.0 mm 0 W/m2
23:37 8.4 °C 3.2 °C 1016.6 hPa West 6.4 km/h 12.9 km/h 70% 0.0 mm 0 W/m2
23:42 8.4 °C 3.4 °C 1016.3 hPa West 6.4 km/h 12.9 km/h 71% 0.0 mm 0 W/m2
23:47 8.3 °C 3.4 °C 1016.3 hPa WNW 7.9 km/h 14.5 km/h 71% 0.0 mm 0 W/m2
23:52 8.2 °C 3.5 °C 1016.6 hPa WNW 3.2 km/h 8 km/h 72% 0.0 mm 0 W/m2
23:57 8.2 °C 3.5 °C 1016.6 hPa NW 4.7 km/h 8 km/h 72% 0.0 mm 0 W/m2
Juneau County Weather
Compliments of Weather Underground - 2 mb